createdAt,value
2024-02-24T00:00:24.328Z,11.57
2024-02-24T00:02:52.527Z,10.82
2024-02-24T00:05:20.798Z,10.30
2024-02-24T00:07:50.178Z,11.38
2024-02-24T00:10:19.037Z,12.63
2024-02-24T00:12:47.328Z,13.32
2024-02-24T00:15:15.686Z,12.40
2024-02-24T00:17:44.346Z,13.50
2024-02-24T00:20:13.066Z,12.93
2024-02-24T00:22:41.524Z,12.70
2024-02-24T00:25:09.734Z,13.85
2024-02-24T00:27:39.417Z,12.07
2024-02-24T00:30:10.726Z,12.10
2024-02-24T00:32:42.495Z,11.13
2024-02-24T00:35:10.757Z,11.25
2024-02-24T00:37:38.909Z,10.90
2024-02-24T00:40:08.742Z,11.25
2024-02-24T00:42:38.492Z,12.20
2024-02-24T00:47:55.439Z,14.98
2024-02-24T00:50:29.777Z,15.10
2024-02-24T00:52:58.209Z,14.77
2024-02-24T00:55:26.507Z,15.27
2024-02-24T00:57:58.827Z,15.75
2024-02-24T01:00:27.024Z,16.60
2024-02-24T01:02:55.294Z,15.02
2024-02-24T01:05:23.479Z,15.18
2024-02-24T01:07:57.197Z,13.68
2024-02-24T01:10:30.002Z,13.15
2024-02-24T01:12:58.273Z,11.90
2024-02-24T01:15:26.700Z,10.73
2024-02-24T01:17:58.187Z,12.10
2024-02-24T01:20:30.630Z,12.48
2024-02-24T01:23:01.409Z,12.73
2024-02-24T01:25:29.913Z,15.27
2024-02-24T01:28:01.344Z,14.85
2024-02-24T01:30:29.591Z,15.85
2024-02-24T01:32:57.988Z,14.05
2024-02-24T01:35:26.350Z,14.68
2024-02-24T01:37:54.548Z,13.45
2024-02-24T01:40:22.780Z,13.95
2024-02-24T01:42:50.944Z,14.27
2024-02-24T01:45:19.218Z,14.80
2024-02-24T01:47:47.799Z,13.75
2024-02-24T01:50:16.677Z,15.32
2024-02-24T01:52:50.654Z,15.23
2024-02-24T01:55:20.060Z,15.63
2024-02-24T01:57:52.003Z,14.60
2024-02-24T02:00:20.290Z,14.30
2024-02-24T02:02:49.063Z,14.07
2024-02-24T02:05:17.468Z,13.95
2024-02-24T02:07:45.663Z,13.05
2024-02-24T02:10:13.883Z,12.07
2024-02-24T02:12:45.086Z,12.07
2024-02-24T02:15:13.471Z,10.65
2024-02-24T02:17:41.769Z,10.25
2024-02-24T02:20:10.462Z,10.82
2024-02-24T02:22:38.687Z,9.27
2024-02-24T02:25:07.087Z,9.30
2024-02-24T02:27:35.316Z,9.13
2024-02-24T02:30:04.633Z,9.95
2024-02-24T02:32:33.269Z,10.05
2024-02-24T02:35:01.503Z,9.98
2024-02-24T02:37:29.621Z,10.20
2024-02-24T02:39:57.832Z,10.77
2024-02-24T02:42:26.018Z,10.52
2024-02-24T02:44:54.193Z,11.02
2024-02-24T02:47:24.189Z,11.68
2024-02-24T02:49:52.879Z,10.75
2024-02-24T02:52:24.575Z,9.68
2024-02-24T02:54:52.785Z,10.07
2024-02-24T02:57:21.019Z,10.45
2024-02-24T02:59:49.350Z,11.02
2024-02-24T03:02:17.660Z,11.35
2024-02-24T03:04:45.989Z,10.57
2024-02-24T03:07:14.199Z,10.90
2024-02-24T03:09:48.181Z,11.73
2024-02-24T03:12:17.069Z,11.70
2024-02-24T03:14:45.841Z,11.85
2024-02-24T03:17:14.215Z,12.15
2024-02-24T03:19:42.568Z,11.13
2024-02-24T03:22:10.784Z,10.95
2024-02-24T03:24:45.319Z,10.10
2024-02-24T03:27:13.641Z,10.13
2024-02-24T03:29:42.065Z,11.25
2024-02-24T03:32:11.635Z,9.63
2024-02-24T03:34:40.608Z,10.40
2024-02-24T03:37:08.935Z,9.77
2024-02-24T03:39:39.250Z,10.25
2024-02-24T03:42:07.567Z,10.90
2024-02-24T03:44:35.833Z,11.93
2024-02-24T03:47:04.073Z,10.10
2024-02-24T03:49:32.390Z,10.07
2024-02-24T03:52:00.624Z,9.77
2024-02-24T03:54:28.943Z,10.15
2024-02-24T03:56:57.190Z,12.27
2024-02-24T03:59:25.507Z,10.73
2024-02-24T04:01:53.876Z,11.60
2024-02-24T04:04:22.070Z,10.10
2024-02-24T04:06:50.334Z,9.55
2024-02-24T04:09:21.591Z,10.88
2024-02-24T04:11:52.080Z,11.77
2024-02-24T04:14:20.875Z,10.43
2024-02-24T04:16:49.182Z,10.70
2024-02-24T04:19:17.424Z,10.55
2024-02-24T04:21:46.238Z,10.60
2024-02-24T04:24:14.482Z,11.10
2024-02-24T04:26:43.085Z,10.55
2024-02-24T04:29:11.331Z,9.98
2024-02-24T04:31:41.252Z,11.18
2024-02-24T04:34:09.593Z,10.20
2024-02-24T04:36:44.325Z,11.35
2024-02-24T04:39:12.499Z,10.65
2024-02-24T04:41:40.987Z,10.50
2024-02-24T04:44:09.379Z,11.80
2024-02-24T04:46:39.752Z,11.40
2024-02-24T04:49:08.154Z,12.23
2024-02-24T04:51:36.446Z,11.25
2024-02-24T04:54:05.573Z,11.55
2024-02-24T04:56:33.771Z,11.63
2024-02-24T04:59:02.054Z,11.52
2024-02-24T05:01:30.483Z,12.55
2024-02-24T05:03:59.059Z,12.57
2024-02-24T05:06:30.086Z,11.70
2024-02-24T05:08:58.406Z,10.90
2024-02-24T05:11:26.861Z,10.35
2024-02-24T05:13:55.053Z,11.45
2024-02-24T05:16:23.307Z,11.18
2024-02-24T05:18:51.563Z,11.85
2024-02-24T05:21:23.530Z,10.70
2024-02-24T05:23:51.896Z,11.60
2024-02-24T05:26:27.560Z,10.82
2024-02-24T05:28:56.873Z,11.07
2024-02-24T05:31:25.183Z,10.18
2024-02-24T05:33:55.009Z,9.98
2024-02-24T05:36:23.281Z,9.50
2024-02-24T05:38:51.503Z,10.52
2024-02-24T05:41:22.682Z,10.75
2024-02-24T05:43:53.265Z,10.77
2024-02-24T05:46:21.539Z,11.30
2024-02-24T05:48:49.882Z,11.73
2024-02-24T05:51:19.441Z,11.88
2024-02-24T05:53:47.667Z,12.82
2024-02-24T05:56:15.932Z,10.77
2024-02-24T05:58:44.373Z,11.57
2024-02-24T06:01:15.837Z,12.68
2024-02-24T06:03:44.272Z,13.65
2024-02-24T06:06:12.822Z,12.00
2024-02-24T06:08:41.547Z,12.07
2024-02-24T06:11:09.877Z,11.70
2024-02-24T06:13:38.156Z,11.38
2024-02-24T06:16:07.169Z,11.93
2024-02-24T06:18:35.455Z,12.00
2024-02-24T06:21:04.578Z,14.20
2024-02-24T06:23:34.032Z,14.13
2024-02-24T06:26:02.204Z,12.73
2024-02-24T06:28:30.359Z,12.38
2024-02-24T06:30:59.601Z,12.05
2024-02-24T06:33:27.958Z,13.50
2024-02-24T06:35:56.417Z,13.02
2024-02-24T06:38:27.566Z,12.43
2024-02-24T06:40:55.824Z,13.15
2024-02-24T06:43:24.074Z,12.63
2024-02-24T06:45:52.245Z,12.70
2024-02-24T06:48:20.887Z,14.57
2024-02-24T06:50:49.278Z,13.98
2024-02-24T06:53:17.581Z,13.18
2024-02-24T06:55:45.885Z,12.32
2024-02-24T06:58:14.116Z,13.50
2024-02-24T07:00:47.354Z,14.63
2024-02-24T07:03:16.393Z,13.07
2024-02-24T07:05:46.521Z,14.20
2024-02-24T07:08:14.886Z,14.10
2024-02-24T07:10:43.149Z,14.60
2024-02-24T07:13:11.339Z,14.35
2024-02-24T07:15:39.935Z,15.38
2024-02-24T07:18:08.389Z,15.93
2024-02-24T07:20:40.511Z,14.60
2024-02-24T07:23:08.879Z,14.02
2024-02-24T07:25:38.556Z,13.85
2024-02-24T07:28:07.623Z,14.73
2024-02-24T07:30:35.764Z,13.85
2024-02-24T07:33:04.662Z,12.60
2024-02-24T07:35:36.094Z,14.27
2024-02-24T07:38:04.620Z,12.50
2024-02-24T07:40:35.133Z,14.27
2024-02-24T07:43:03.629Z,12.95
2024-02-24T07:45:31.852Z,13.55
2024-02-24T07:48:00.087Z,14.52
2024-02-24T07:50:28.582Z,13.45
2024-02-24T07:52:57.197Z,13.63
2024-02-24T07:55:25.334Z,13.98
2024-02-24T07:57:53.854Z,14.70
2024-02-24T08:00:23.734Z,15.00
2024-02-24T08:02:57.112Z,15.02
2024-02-24T08:05:25.794Z,13.05
2024-02-24T08:07:54.030Z,11.77
2024-02-24T08:10:22.230Z,12.50
2024-02-24T08:12:50.483Z,12.60
2024-02-24T08:15:19.394Z,12.00
2024-02-24T08:17:47.697Z,11.48
2024-02-24T08:20:16.134Z,10.80
2024-02-24T08:22:46.990Z,10.15
2024-02-24T08:25:15.155Z,11.77
2024-02-24T08:27:43.400Z,12.55
2024-02-24T08:30:13.171Z,11.95
2024-02-24T08:32:41.521Z,13.07
2024-02-24T08:35:10.185Z,10.55
2024-02-24T08:37:38.579Z,12.13
2024-02-24T08:40:07.398Z,12.07
2024-02-24T08:42:35.656Z,13.43
2024-02-24T08:45:05.906Z,12.88
2024-02-24T08:47:34.302Z,14.02
2024-02-24T08:50:02.634Z,14.13
2024-02-24T08:52:38.050Z,12.40
2024-02-24T08:55:14.265Z,13.65
2024-02-24T08:57:42.509Z,13.90
2024-02-24T09:00:11.413Z,14.43
2024-02-24T09:02:39.918Z,14.52
2024-02-24T09:05:09.011Z,13.68
2024-02-24T09:07:40.065Z,14.18
2024-02-24T09:10:09.552Z,15.52
2024-02-24T09:12:37.932Z,16.02
2024-02-24T09:15:07.498Z,15.68
2024-02-24T09:17:35.852Z,17.58
2024-02-24T09:20:04.767Z,14.88
2024-02-24T09:22:33.079Z,14.95
2024-02-24T09:25:02.618Z,14.80
2024-02-24T09:27:30.933Z,16.63
2024-02-24T09:29:59.384Z,15.38
2024-02-24T09:32:27.867Z,13.60
2024-02-24T09:34:56.167Z,13.38
2024-02-24T09:37:24.378Z,13.43
2024-02-24T09:39:52.589Z,13.73
2024-02-24T09:42:26.414Z,12.02
2024-02-24T09:45:00.659Z,12.85
2024-02-24T09:47:30.446Z,11.05
2024-02-24T09:50:00.660Z,10.23
2024-02-24T09:52:32.094Z,11.48
2024-02-24T09:55:00.544Z,9.65
2024-02-24T09:57:33.968Z,8.80
2024-02-24T10:00:03.522Z,9.40
2024-02-24T10:02:40.868Z,9.07
2024-02-24T10:05:12.217Z,8.38
2024-02-24T10:07:41.029Z,7.03
2024-02-24T10:10:11.909Z,7.63
2024-02-24T10:12:40.146Z,6.88
2024-02-24T10:15:09.146Z,6.05
2024-02-24T10:17:39.907Z,6.88
2024-02-24T10:20:09.915Z,6.80
2024-02-24T10:22:40.947Z,5.70
2024-02-24T10:25:09.368Z,5.80
2024-02-24T10:27:37.738Z,5.47
2024-02-24T10:30:10.098Z,6.22
2024-02-24T10:32:40.760Z,6.60
2024-02-24T10:35:10.065Z,6.18
2024-02-24T10:37:56.431Z,5.35
2024-02-24T10:40:26.697Z,5.57
2024-02-24T10:42:56.003Z,5.10
2024-02-24T10:45:25.940Z,5.68
2024-02-24T10:47:54.225Z,5.28
2024-02-24T10:50:22.538Z,6.22
2024-02-24T10:52:52.371Z,5.05
2024-02-24T10:55:24.035Z,5.72
2024-02-24T10:57:56.053Z,5.55
2024-02-24T11:00:32.010Z,6.55
2024-02-24T11:03:01.933Z,7.53
2024-02-24T11:05:30.509Z,7.75
2024-02-24T11:07:59.010Z,7.18
2024-02-24T11:10:34.637Z,7.95
2024-02-24T11:13:03.801Z,8.20
2024-02-24T11:15:33.395Z,10.50
2024-02-24T11:18:01.817Z,11.55
2024-02-24T11:20:38.465Z,10.98
2024-02-24T11:23:23.423Z,9.95
2024-02-24T11:26:17.504Z,10.43
2024-02-24T11:29:00.163Z,10.05
2024-02-24T11:31:35.529Z,11.10
2024-02-24T11:34:12.328Z,10.30
2024-02-24T11:36:42.904Z,9.07
2024-02-24T11:39:13.619Z,9.50
2024-02-24T11:41:42.574Z,8.10
2024-02-24T11:44:12.147Z,7.80
2024-02-24T11:46:45.037Z,6.55
2024-02-24T11:49:13.390Z,5.50
2024-02-24T11:51:44.440Z,6.28
2024-02-24T11:54:14.124Z,6.55
2024-02-24T11:56:42.731Z,7.15
2024-02-24T11:59:11.174Z,5.70
2024-02-24T12:01:39.475Z,5.95
2024-02-24T12:04:07.948Z,4.10
2024-02-24T12:06:36.244Z,4.65
2024-02-24T12:09:04.739Z,3.70
2024-02-24T12:11:36.501Z,3.60
2024-02-24T12:14:04.848Z,3.42
2024-02-24T12:16:33.491Z,3.85
2024-02-24T12:19:06.825Z,4.10
2024-02-24T12:24:03.169Z,4.00
2024-02-24T12:26:31.640Z,3.13
2024-02-24T12:28:59.855Z,3.88
2024-02-24T12:31:28.340Z,3.58
2024-02-24T12:33:59.484Z,3.95
2024-02-24T12:36:32.388Z,5.53
2024-02-24T12:39:00.729Z,5.75
2024-02-24T12:41:31.314Z,6.70
2024-02-24T12:43:59.523Z,5.03
2024-02-24T12:46:27.699Z,6.65
2024-02-24T12:48:56.298Z,6.22
2024-02-24T12:51:27.493Z,6.18
2024-02-24T12:53:55.761Z,5.35
2024-02-24T12:56:24.034Z,6.47
2024-02-24T12:58:52.328Z,7.72
2024-02-24T13:01:20.671Z,7.90
2024-02-24T13:03:49.690Z,8.38
2024-02-24T13:06:18.115Z,9.40
2024-02-24T13:08:47.419Z,9.57
2024-02-24T13:11:15.831Z,8.90
2024-02-24T13:13:44.368Z,8.70
2024-02-24T13:16:12.661Z,9.13
2024-02-24T13:18:41.123Z,8.20
2024-02-24T13:21:09.759Z,7.05
2024-02-24T13:23:37.886Z,7.50
2024-02-24T13:26:06.073Z,7.95
2024-02-24T13:28:34.591Z,6.70
2024-02-24T13:31:02.764Z,8.13
2024-02-24T13:33:31.427Z,6.80
2024-02-24T13:36:00.180Z,8.07
2024-02-24T13:38:28.607Z,7.05
2024-02-24T13:40:56.978Z,7.50
2024-02-24T13:43:25.182Z,7.40
2024-02-24T13:45:57.170Z,10.20
2024-02-24T13:48:28.305Z,12.05
2024-02-24T13:50:56.772Z,11.63
2024-02-24T13:53:24.941Z,13.85
2024-02-24T13:55:53.190Z,9.20
2024-02-24T13:58:21.397Z,9.95
2024-02-24T14:00:49.675Z,7.50
2024-02-24T14:03:17.853Z,5.60
2024-02-24T14:05:49.445Z,8.52
2024-02-24T14:08:17.762Z,7.07
2024-02-24T14:10:45.981Z,8.15
2024-02-24T14:13:14.233Z,7.55
2024-02-24T14:15:47.934Z,9.10
2024-02-24T14:18:16.282Z,9.43
2024-02-24T14:20:44.652Z,9.55
2024-02-24T14:23:12.911Z,8.30
2024-02-24T14:25:41.590Z,9.85
2024-02-24T14:28:13.635Z,9.00
2024-02-24T14:30:44.075Z,7.43
2024-02-24T14:33:12.909Z,9.23
2024-02-24T14:35:42.867Z,9.25
2024-02-24T14:38:11.149Z,8.85
2024-02-24T14:40:39.371Z,9.45
2024-02-24T14:43:07.551Z,9.52
2024-02-24T14:45:35.726Z,9.25
2024-02-24T14:48:06.263Z,37.53
2024-02-24T14:50:34.878Z,36.13
2024-02-24T14:53:03.260Z,21.38
2024-02-24T14:55:31.460Z,13.57
2024-02-24T14:57:59.647Z,10.68
2024-02-24T15:00:28.452Z,11.90
2024-02-24T15:03:08.676Z,10.02
2024-02-24T15:05:39.224Z,11.10
2024-02-24T15:08:07.888Z,10.70
2024-02-24T15:10:36.064Z,11.57
2024-02-24T15:13:05.276Z,10.65
2024-02-24T15:15:33.571Z,9.85
2024-02-24T15:18:04.610Z,10.32
2024-02-24T15:20:33.741Z,10.95
2024-02-24T15:23:02.071Z,9.98
2024-02-24T15:25:30.159Z,10.27
2024-02-24T15:27:59.916Z,9.80
2024-02-24T15:30:28.143Z,9.88
2024-02-24T15:32:59.352Z,10.25
2024-02-24T15:35:27.911Z,9.20
2024-02-24T15:37:56.194Z,10.00
2024-02-24T15:40:42.849Z,10.88
2024-02-24T15:43:11.049Z,9.90
2024-02-24T15:45:39.187Z,9.25
2024-02-24T15:48:09.282Z,9.52
2024-02-24T15:50:37.585Z,8.90
2024-02-24T15:53:05.851Z,8.70
2024-02-24T15:55:33.990Z,9.30
2024-02-24T15:58:02.609Z,9.35
2024-02-24T16:00:33.718Z,10.35
2024-02-24T16:03:04.893Z,9.05
2024-02-24T16:05:33.679Z,8.23
2024-02-24T16:08:02.062Z,8.73
2024-02-24T16:10:30.406Z,9.10
2024-02-24T16:12:58.913Z,8.60
2024-02-24T16:15:27.299Z,8.23
2024-02-24T16:18:14.686Z,7.53
2024-02-24T16:20:44.571Z,8.88
2024-02-24T16:23:15.121Z,8.52
2024-02-24T16:25:43.460Z,8.27
2024-02-24T16:28:14.786Z,9.20
2024-02-24T16:30:43.109Z,7.57
2024-02-24T16:33:11.405Z,8.57
2024-02-24T16:35:39.703Z,8.82
2024-02-24T16:38:07.941Z,8.18
2024-02-24T16:40:36.149Z,8.52
2024-02-24T16:43:04.620Z,8.65
2024-02-24T16:45:32.916Z,9.45
2024-02-24T16:48:01.510Z,8.70
2024-02-24T16:50:29.901Z,9.88
2024-02-24T16:52:58.185Z,8.73
2024-02-24T16:55:26.346Z,8.65
2024-02-24T16:57:54.511Z,8.85
2024-02-24T17:00:22.957Z,7.65
2024-02-24T17:02:51.235Z,7.45
2024-02-24T17:05:21.987Z,9.13
2024-02-24T17:07:52.413Z,8.07
2024-02-24T17:10:20.627Z,9.10
2024-02-24T17:12:49.101Z,8.02
2024-02-24T17:15:17.332Z,8.52
2024-02-24T17:17:47.488Z,8.70
2024-02-24T17:20:16.552Z,8.10
2024-02-24T17:22:44.828Z,8.80
2024-02-24T17:25:13.042Z,9.93
2024-02-24T17:27:41.255Z,10.38
2024-02-24T17:30:10.133Z,9.10
